sensor_id;sensor_type;location;lat;lon;timestamp;P1;P2;P0
47711;PMS7003;57457;51.634;5.886;2024-02-15T00:06:46;2.4;2.08;1.21
47711;PMS7003;57457;51.634;5.886;2024-02-15T00:20:05;0.01;2.3;
47711;PMS7003;57457;51.634;5.886;2024-02-15T00:33:25;2.04;2.52;1.21
47711;PMS7003;57457;51.634;5.886;2024-02-15T00:46:45;0.01;1.86;
47711;PMS7003;57457;51.634;5.886;2024-02-15T01:00:05;0.01;1.86;
47711;PMS7003;57457;51.634;5.886;2024-02-15T01:13:25;0.01;2.19;
47711;PMS7003;57457;51.634;5.886;2024-02-15T01:26:44;0.01;2.08;1.21
47711;PMS7003;57457;51.634;5.886;2024-02-15T01:40:04;0.01;1.86;
47711;PMS7003;57457;51.634;5.886;2024-02-15T01:53:24;0.01;1.75;1.21
47711;PMS7003;57457;51.634;5.886;2024-02-15T02:06:44;0.01;1.64;
47711;PMS7003;57457;51.634;5.886;2024-02-15T02:20:04;0.01;1.75;
47711;PMS7003;57457;51.634;5.886;2024-02-15T02:33:24;0.72;1.54;
47711;PMS7003;57457;51.634;5.886;2024-02-15T02:46:43;2.28;1.97;
47711;PMS7003;57457;51.634;5.886;2024-02-15T03:00:03;0.01;1.75;
47711;PMS7003;57457;51.634;5.886;2024-02-15T03:13:23;0.01;1.54;
47711;PMS7003;57457;51.634;5.886;2024-02-15T03:26:43;0.01;1.54;
47711;PMS7003;57457;51.634;5.886;2024-02-15T03:40:03;0.01;1.54;
47711;PMS7003;57457;51.634;5.886;2024-02-15T03:53:22;0.01;1.32;
47711;PMS7003;57457;51.634;5.886;2024-02-15T04:06:42;0.01;1.54;
47711;PMS7003;57457;51.634;5.886;2024-02-15T04:20:02;0.01;1.43;
47711;PMS7003;57457;51.634;5.886;2024-02-15T04:33:22;0.01;1.32;
47711;PMS7003;57457;51.634;5.886;2024-02-15T04:46:42;0.01;1.54;
47711;PMS7003;57457;51.634;5.886;2024-02-15T05:00:02;0.01;1.43;
47711;PMS7003;57457;51.634;5.886;2024-02-15T05:13:21;0.01;1.21;
47711;PMS7003;57457;51.634;5.886;2024-02-15T05:26:41;0.01;1.21;
47711;PMS7003;57457;51.634;5.886;2024-02-15T05:40:01;0.01;1.32;
47711;PMS7003;57457;51.634;5.886;2024-02-15T05:53:21;0.01;1.32;
47711;PMS7003;57457;51.634;5.886;2024-02-15T06:06:41;0.01;1.32;
47711;PMS7003;57457;51.634;5.886;2024-02-15T06:20:00;;;
47711;PMS7003;57457;51.634;5.886;2024-02-15T06:46:40;0.01;1.43;
47711;PMS7003;57457;51.634;5.886;2024-02-15T07:00:00;0.01;1.21;
47711;PMS7003;57457;51.634;5.886;2024-02-15T07:13:20;0.01;1.21;
47711;PMS7003;57457;51.634;5.886;2024-02-15T07:26:39;0.01;1.43;
47711;PMS7003;57457;51.634;5.886;2024-02-15T07:39:59;0.01;1.32;
47711;PMS7003;57457;51.634;5.886;2024-02-15T07:53:19;0.36;1.32;
47711;PMS7003;57457;51.634;5.886;2024-02-15T08:06:39;;;
47711;PMS7003;57457;51.634;5.886;2024-02-15T08:19:59;0.01;;
47711;PMS7003;57457;51.634;5.886;2024-02-15T08:33:20;0.01;1.32;
47711;PMS7003;57457;51.634;5.886;2024-02-15T08:46:40;0.01;1.21;
47711;PMS7003;57457;51.634;5.886;2024-02-15T09:00:00;0.01;1.43;
47711;PMS7003;57457;51.634;5.886;2024-02-15T09:13:19;0.01;1.21;
47711;PMS7003;57457;51.634;5.886;2024-02-15T09:26:39;0.01;1.21;
47711;PMS7003;57457;51.634;5.886;2024-02-15T09:39:59;0.01;1.32;
47711;PMS7003;57457;51.634;5.886;2024-02-15T09:53:19;0.01;1.32;
47711;PMS7003;57457;51.634;5.886;2024-02-15T10:06:39;0.01;;
47711;PMS7003;57457;51.634;5.886;2024-02-15T10:19:59;0.01;1.21;
47711;PMS7003;57457;51.634;5.886;2024-02-15T10:33:18;0.01;1.21;
47711;PMS7003;57457;51.634;5.886;2024-02-15T10:46:38;0.01;1.21;
47711;PMS7003;57457;51.634;5.886;2024-02-15T10:59:58;0.01;1.32;
47711;PMS7003;57457;51.634;5.886;2024-02-15T11:13:18;0.01;1.21;
47711;PMS7003;57457;51.634;5.886;2024-02-15T11:26:38;0.01;1.21;
47711;PMS7003;57457;51.634;5.886;2024-02-15T11:39:57;0.01;1.21;
47711;PMS7003;57457;51.634;5.886;2024-02-15T11:53:17;0.01;;
47711;PMS7003;57457;51.634;5.886;2024-02-15T12:19:57;0.01;;
47711;PMS7003;57457;51.634;5.886;2024-02-15T12:33:17;0.01;1.21;
47711;PMS7003;57457;51.634;5.886;2024-02-15T12:46:38;0.01;;
47711;PMS7003;57457;51.634;5.886;2024-02-15T12:59:58;0.01;;
47711;PMS7003;57457;51.634;5.886;2024-02-15T13:13:18;0.01;;
47711;PMS7003;57457;51.634;5.886;2024-02-15T13:26:38;0.01;;
47711;PMS7003;57457;51.634;5.886;2024-02-15T13:39:57;;;
47711;PMS7003;57457;51.634;5.886;2024-02-15T14:06:40;;;
47711;PMS7003;57457;51.634;5.886;2024-02-15T14:20:00;0.01;;
47711;PMS7003;57457;51.634;5.886;2024-02-15T14:33:20;;;
47711;PMS7003;57457;51.634;5.886;2024-02-15T14:46:39;;;
47711;PMS7003;57457;51.634;5.886;2024-02-15T15:00:01;;;
47711;PMS7003;57457;51.634;5.886;2024-02-15T15:13:21;0.01;;
47711;PMS7003;57457;51.634;5.886;2024-02-15T15:40:02;0.01;;
47711;PMS7003;57457;51.634;5.886;2024-02-15T15:53:22;0.01;;
47711;PMS7003;57457;51.634;5.886;2024-02-15T16:06:41;0.01;1.32;
47711;PMS7003;57457;51.634;5.886;2024-02-15T16:20:01;0.01;;
47711;PMS7003;57457;51.634;5.886;2024-02-15T16:46:41;0.01;;
47711;PMS7003;57457;51.634;5.886;2024-02-15T17:00:02;0.01;;
47711;PMS7003;57457;51.634;5.886;2024-02-15T17:13:22;;;
47711;PMS7003;57457;51.634;5.886;2024-02-15T17:26:42;;;
47711;PMS7003;57457;51.634;5.886;2024-02-15T17:40:02;0.01;1.21;
47711;PMS7003;57457;51.634;5.886;2024-02-15T17:53:21;0.01;1.43;
47711;PMS7003;57457;51.634;5.886;2024-02-15T18:06:41;;;
47711;PMS7003;57457;51.634;5.886;2024-02-15T18:20:01;;;
47711;PMS7003;57457;51.634;5.886;2024-02-15T18:33:21;;;
47711;PMS7003;57457;51.634;5.886;2024-02-15T18:46:41;;;
47711;PMS7003;57457;51.634;5.886;2024-02-15T19:00:00;;;
47711;PMS7003;57457;51.634;5.886;2024-02-15T19:13:20;;;
47711;PMS7003;57457;51.634;5.886;2024-02-15T19:26:40;0.01;;
47711;PMS7003;57457;51.634;5.886;2024-02-15T19:40:00;0.01;;
47711;PMS7003;57457;51.634;5.886;2024-02-15T19:53:19;0.01;1.21;
47711;PMS7003;57457;51.634;5.886;2024-02-15T20:06:39;0.01;1.54;
47711;PMS7003;57457;51.634;5.886;2024-02-15T20:19:59;0.01;;
47711;PMS7003;57457;51.634;5.886;2024-02-15T20:33:19;0.01;1.64;
47711;PMS7003;57457;51.634;5.886;2024-02-15T20:46:39;0.01;1.32;
47711;PMS7003;57457;51.634;5.886;2024-02-15T20:59:58;0.01;1.43;
47711;PMS7003;57457;51.634;5.886;2024-02-15T21:13:18;0.01;1.43;
47711;PMS7003;57457;51.634;5.886;2024-02-15T21:26:38;0.01;1.21;
47711;PMS7003;57457;51.634;5.886;2024-02-15T21:53:18;0.01;1.43;
47711;PMS7003;57457;51.634;5.886;2024-02-15T22:19:59;0.01;1.21;
47711;PMS7003;57457;51.634;5.886;2024-02-15T22:33:19;0.01;1.21;
47711;PMS7003;57457;51.634;5.886;2024-02-15T22:46:39;0.01;1.32;
47711;PMS7003;57457;51.634;5.886;2024-02-15T23:00:00;0.01;1.32;
47711;PMS7003;57457;51.634;5.886;2024-02-15T23:13:20;0.01;1.32;
47711;PMS7003;57457;51.634;5.886;2024-02-15T23:26:40;0.01;1.32;
47711;PMS7003;57457;51.634;5.886;2024-02-15T23:40:01;0.01;1.32;
47711;PMS7003;57457;51.634;5.886;2024-02-15T23:53:21;0.01;1.21;
